sensor_id;sensor_type;location;lat;lon;timestamp;temperature;humidity
54124;DHT22;55741;53.252;5.788;2022-12-18T00:01:44;-2.80;99.90
54124;DHT22;55741;53.252;5.788;2022-12-18T00:04:21;-2.70;99.90
54124;DHT22;55741;53.252;5.788;2022-12-18T00:06:47;-2.80;99.90
54124;DHT22;55741;53.252;5.788;2022-12-18T00:09:14;-2.80;99.90
54124;DHT22;55741;53.252;5.788;2022-12-18T00:11:40;-2.80;99.90
54124;DHT22;55741;53.252;5.788;2022-12-18T00:14:06;-2.80;99.90
54124;DHT22;55741;53.252;5.788;2022-12-18T00:16:32;-2.80;99.90
54124;DHT22;55741;53.252;5.788;2022-12-18T00:19:01;-2.80;99.90
54124;DHT22;55741;53.252;5.788;2022-12-18T00:21:28;-2.80;99.90
54124;DHT22;55741;53.252;5.788;2022-12-18T00:23:55;-2.80;99.90
54124;DHT22;55741;53.252;5.788;2022-12-18T00:26:33;-2.80;99.90
54124;DHT22;55741;53.252;5.788;2022-12-18T00:29:09;-2.80;99.90
54124;DHT22;55741;53.252;5.788;2022-12-18T00:31:37;-2.80;99.90
54124;DHT22;55741;53.252;5.788;2022-12-18T00:34:02;-2.80;99.90
54124;DHT22;55741;53.252;5.788;2022-12-18T00:36:32;-2.70;99.90
54124;DHT22;55741;53.252;5.788;2022-12-18T00:39:02;-2.80;99.90
54124;DHT22;55741;53.252;5.788;2022-12-18T00:41:28;-2.70;99.90
54124;DHT22;55741;53.252;5.788;2022-12-18T00:44:15;-2.80;99.90
54124;DHT22;55741;53.252;5.788;2022-12-18T00:46:42;-2.80;99.90
54124;DHT22;55741;53.252;5.788;2022-12-18T00:49:09;-2.80;99.90
54124;DHT22;55741;53.252;5.788;2022-12-18T00:51:35;-2.80;99.90
54124;DHT22;55741;53.252;5.788;2022-12-18T00:54:01;-2.80;99.90
54124;DHT22;55741;53.252;5.788;2022-12-18T00:56:28;-2.80;99.90
54124;DHT22;55741;53.252;5.788;2022-12-18T00:58:54;-2.80;99.90
54124;DHT22;55741;53.252;5.788;2022-12-18T01:01:20;-2.80;99.90
54124;DHT22;55741;53.252;5.788;2022-12-18T01:03:46;-2.70;99.90
54124;DHT22;55741;53.252;5.788;2022-12-18T01:06:14;-2.80;99.90
54124;DHT22;55741;53.252;5.788;2022-12-18T01:08:40;-2.80;99.90
54124;DHT22;55741;53.252;5.788;2022-12-18T01:11:11;-2.80;99.90
54124;DHT22;55741;53.252;5.788;2022-12-18T01:13:40;-2.80;99.90
54124;DHT22;55741;53.252;5.788;2022-12-18T01:16:06;-2.80;99.90
54124;DHT22;55741;53.252;5.788;2022-12-18T01:18:40;-2.80;99.90
54124;DHT22;55741;53.252;5.788;2022-12-18T01:21:09;-2.80;99.90
54124;DHT22;55741;53.252;5.788;2022-12-18T01:23:35;-2.70;99.90
54124;DHT22;55741;53.252;5.788;2022-12-18T01:26:15;-2.80;99.90
54124;DHT22;55741;53.252;5.788;2022-12-18T01:28:41;-2.80;99.90
54124;DHT22;55741;53.252;5.788;2022-12-18T01:31:16;-2.90;99.90
54124;DHT22;55741;53.252;5.788;2022-12-18T01:33:44;-2.80;99.90
54124;DHT22;55741;53.252;5.788;2022-12-18T01:36:25;-2.90;99.90
54124;DHT22;55741;53.252;5.788;2022-12-18T01:38:53;-2.90;99.90
54124;DHT22;55741;53.252;5.788;2022-12-18T01:41:21;-2.90;99.90
54124;DHT22;55741;53.252;5.788;2022-12-18T01:43:57;-2.90;99.90
54124;DHT22;55741;53.252;5.788;2022-12-18T01:46:24;-2.90;99.90
54124;DHT22;55741;53.252;5.788;2022-12-18T01:48:55;-2.90;99.90
54124;DHT22;55741;53.252;5.788;2022-12-18T01:51:30;-3.00;99.90
54124;DHT22;55741;53.252;5.788;2022-12-18T01:53:57;-3.00;99.90
54124;DHT22;55741;53.252;5.788;2022-12-18T01:56:25;-3.00;99.90
54124;DHT22;55741;53.252;5.788;2022-12-18T01:59:02;-3.00;99.90
54124;DHT22;55741;53.252;5.788;2022-12-18T02:01:31;-3.00;99.90
54124;DHT22;55741;53.252;5.788;2022-12-18T02:04:21;-3.10;99.90
54124;DHT22;55741;53.252;5.788;2022-12-18T02:06:52;-3.10;99.90
54124;DHT22;55741;53.252;5.788;2022-12-18T02:09:24;-3.10;99.90
54124;DHT22;55741;53.252;5.788;2022-12-18T02:12:09;-3.10;99.90
54124;DHT22;55741;53.252;5.788;2022-12-18T02:15:06;-3.10;99.90
54124;DHT22;55741;53.252;5.788;2022-12-18T02:20:25;-3.20;99.90
54124;DHT22;55741;53.252;5.788;2022-12-18T02:28:38;-3.30;99.90
54124;DHT22;55741;53.252;5.788;2022-12-18T02:31:21;-3.40;99.90
54124;DHT22;55741;53.252;5.788;2022-12-18T02:33:49;-3.40;99.90
54124;DHT22;55741;53.252;5.788;2022-12-18T02:36:17;-3.40;99.90
54124;DHT22;55741;53.252;5.788;2022-12-18T02:38:44;-3.40;99.90
54124;DHT22;55741;53.252;5.788;2022-12-18T02:41:13;-3.40;99.90
54124;DHT22;55741;53.252;5.788;2022-12-18T02:43:42;-3.40;99.90
54124;DHT22;55741;53.252;5.788;2022-12-18T02:46:41;-3.40;99.90
54124;DHT22;55741;53.252;5.788;2022-12-18T02:52:10;-3.50;99.90
54124;DHT22;55741;53.252;5.788;2022-12-18T02:58:01;-3.50;99.90
54124;DHT22;55741;53.252;5.788;2022-12-18T03:00:39;-3.50;99.90
54124;DHT22;55741;53.252;5.788;2022-12-18T03:03:11;-3.50;99.90
54124;DHT22;55741;53.252;5.788;2022-12-18T03:05:43;-3.60;99.90
54124;DHT22;55741;53.252;5.788;2022-12-18T03:08:22;-3.60;99.90
54124;DHT22;55741;53.252;5.788;2022-12-18T03:11:00;-3.60;99.90
54124;DHT22;55741;53.252;5.788;2022-12-18T03:13:44;-3.60;99.90
54124;DHT22;55741;53.252;5.788;2022-12-18T03:16:15;-3.60;99.90
54124;DHT22;55741;53.252;5.788;2022-12-18T03:18:49;-3.60;99.90
54124;DHT22;55741;53.252;5.788;2022-12-18T03:21:17;-3.70;99.90
54124;DHT22;55741;53.252;5.788;2022-12-18T03:23:48;-3.80;99.90
54124;DHT22;55741;53.252;5.788;2022-12-18T03:26:20;-3.80;99.90
54124;DHT22;55741;53.252;5.788;2022-12-18T03:28:57;-3.80;99.90
54124;DHT22;55741;53.252;5.788;2022-12-18T03:31:28;-3.80;99.90
54124;DHT22;55741;53.252;5.788;2022-12-18T03:33:57;-3.80;99.90
54124;DHT22;55741;53.252;5.788;2022-12-18T03:36:24;-3.70;99.90
54124;DHT22;55741;53.252;5.788;2022-12-18T03:38:51;-3.70;99.90
54124;DHT22;55741;53.252;5.788;2022-12-18T03:41:24;-3.80;99.90
54124;DHT22;55741;53.252;5.788;2022-12-18T03:44:08;-3.80;99.90
54124;DHT22;55741;53.252;5.788;2022-12-18T03:49:34;-3.80;99.90
54124;DHT22;55741;53.252;5.788;2022-12-18T03:52:11;-3.90;99.90
54124;DHT22;55741;53.252;5.788;2022-12-18T03:54:39;-3.90;99.90
54124;DHT22;55741;53.252;5.788;2022-12-18T03:57:21;-3.90;99.90
54124;DHT22;55741;53.252;5.788;2022-12-18T03:59:50;-4.00;99.90
54124;DHT22;55741;53.252;5.788;2022-12-18T04:02:20;-3.90;99.90
54124;DHT22;55741;53.252;5.788;2022-12-18T04:04:53;-3.90;99.90
54124;DHT22;55741;53.252;5.788;2022-12-18T04:07:22;-3.90;99.90
54124;DHT22;55741;53.252;5.788;2022-12-18T04:09:48;-3.90;99.90
54124;DHT22;55741;53.252;5.788;2022-12-18T04:12:15;-4.00;99.90
54124;DHT22;55741;53.252;5.788;2022-12-18T04:14:41;-4.00;99.90
54124;DHT22;55741;53.252;5.788;2022-12-18T04:17:08;-4.00;99.90
54124;DHT22;55741;53.252;5.788;2022-12-18T04:19:33;-4.10;99.90
54124;DHT22;55741;53.252;5.788;2022-12-18T04:21:59;-4.10;99.90
54124;DHT22;55741;53.252;5.788;2022-12-18T04:24:25;-4.10;99.90
54124;DHT22;55741;53.252;5.788;2022-12-18T04:26:52;-4.20;99.90
54124;DHT22;55741;53.252;5.788;2022-12-18T04:29:18;-4.20;99.90
54124;DHT22;55741;53.252;5.788;2022-12-18T04:31:43;-4.20;99.90
54124;DHT22;55741;53.252;5.788;2022-12-18T04:34:09;-4.20;99.90
54124;DHT22;55741;53.252;5.788;2022-12-18T04:36:35;-4.20;99.90
54124;DHT22;55741;53.252;5.788;2022-12-18T04:39:01;-4.30;99.90
54124;DHT22;55741;53.252;5.788;2022-12-18T04:41:27;-4.30;99.90
54124;DHT22;55741;53.252;5.788;2022-12-18T04:43:53;-4.30;99.90
54124;DHT22;55741;53.252;5.788;2022-12-18T04:46:19;-4.30;99.90
54124;DHT22;55741;53.252;5.788;2022-12-18T04:48:46;-4.30;99.90
54124;DHT22;55741;53.252;5.788;2022-12-18T04:51:13;-4.30;99.90
54124;DHT22;55741;53.252;5.788;2022-12-18T04:53:39;-4.40;99.90
54124;DHT22;55741;53.252;5.788;2022-12-18T04:56:15;-4.40;99.90
54124;DHT22;55741;53.252;5.788;2022-12-18T04:58:43;-4.40;99.90
54124;DHT22;55741;53.252;5.788;2022-12-18T05:01:10;-4.40;99.90
54124;DHT22;55741;53.252;5.788;2022-12-18T05:03:39;-4.40;99.90
54124;DHT22;55741;53.252;5.788;2022-12-18T05:06:06;-4.40;99.90
54124;DHT22;55741;53.252;5.788;2022-12-18T05:08:39;-4.50;99.90
54124;DHT22;55741;53.252;5.788;2022-12-18T05:11:08;-4.40;99.90
54124;DHT22;55741;53.252;5.788;2022-12-18T05:13:34;-4.40;99.90
54124;DHT22;55741;53.252;5.788;2022-12-18T05:16:01;-4.50;99.90
54124;DHT22;55741;53.252;5.788;2022-12-18T05:18:29;-4.50;99.90
54124;DHT22;55741;53.252;5.788;2022-12-18T05:20:55;-4.50;99.90
54124;DHT22;55741;53.252;5.788;2022-12-18T05:23:22;-4.50;99.90
54124;DHT22;55741;53.252;5.788;2022-12-18T05:25:53;-4.50;99.90
54124;DHT22;55741;53.252;5.788;2022-12-18T05:28:24;-4.50;99.90
54124;DHT22;55741;53.252;5.788;2022-12-18T05:30:53;-4.50;99.90
54124;DHT22;55741;53.252;5.788;2022-12-18T05:33:20;-4.50;99.90
54124;DHT22;55741;53.252;5.788;2022-12-18T05:35:58;-4.60;99.90
54124;DHT22;55741;53.252;5.788;2022-12-18T05:38:25;-4.60;99.90
54124;DHT22;55741;53.252;5.788;2022-12-18T05:40:59;-4.60;99.90
54124;DHT22;55741;53.252;5.788;2022-12-18T05:43:25;-4.60;99.90
54124;DHT22;55741;53.252;5.788;2022-12-18T05:45:52;-4.70;99.90
54124;DHT22;55741;53.252;5.788;2022-12-18T05:48:19;-4.70;99.90
54124;DHT22;55741;53.252;5.788;2022-12-18T05:50:46;-4.70;99.90
54124;DHT22;55741;53.252;5.788;2022-12-18T05:53:14;-4.70;99.90
54124;DHT22;55741;53.252;5.788;2022-12-18T05:55:42;-4.70;99.90
54124;DHT22;55741;53.252;5.788;2022-12-18T05:58:09;-4.70;99.90
54124;DHT22;55741;53.252;5.788;2022-12-18T06:00:37;-4.80;99.90
54124;DHT22;55741;53.252;5.788;2022-12-18T06:03:12;-4.80;99.90
54124;DHT22;55741;53.252;5.788;2022-12-18T06:05:45;-4.70;99.90
54124;DHT22;55741;53.252;5.788;2022-12-18T06:08:11;-4.80;99.90
54124;DHT22;55741;53.252;5.788;2022-12-18T06:10:38;-4.90;99.90
54124;DHT22;55741;53.252;5.788;2022-12-18T06:13:12;-4.90;99.90
54124;DHT22;55741;53.252;5.788;2022-12-18T06:15:46;-4.90;99.90
54124;DHT22;55741;53.252;5.788;2022-12-18T06:18:12;-4.90;99.90
54124;DHT22;55741;53.252;5.788;2022-12-18T06:20:38;-4.90;99.90
54124;DHT22;55741;53.252;5.788;2022-12-18T06:23:05;-4.90;99.90
54124;DHT22;55741;53.252;5.788;2022-12-18T06:25:32;-5.00;99.90
54124;DHT22;55741;53.252;5.788;2022-12-18T06:27:58;-4.90;99.90
54124;DHT22;55741;53.252;5.788;2022-12-18T06:30:24;-4.90;99.90
54124;DHT22;55741;53.252;5.788;2022-12-18T06:32:51;-4.90;99.90
54124;DHT22;55741;53.252;5.788;2022-12-18T06:35:16;-5.00;99.90
54124;DHT22;55741;53.252;5.788;2022-12-18T06:37:42;-5.00;99.90
54124;DHT22;55741;53.252;5.788;2022-12-18T06:40:08;-5.00;99.90
54124;DHT22;55741;53.252;5.788;2022-12-18T06:42:34;-5.00;99.90
54124;DHT22;55741;53.252;5.788;2022-12-18T06:45:04;-5.00;99.90
54124;DHT22;55741;53.252;5.788;2022-12-18T06:47:30;-5.00;99.90
54124;DHT22;55741;53.252;5.788;2022-12-18T06:49:56;-5.00;99.90
54124;DHT22;55741;53.252;5.788;2022-12-18T06:52:22;-5.10;99.90
54124;DHT22;55741;53.252;5.788;2022-12-18T06:54:48;-5.10;99.90
54124;DHT22;55741;53.252;5.788;2022-12-18T06:57:14;-5.20;99.90
54124;DHT22;55741;53.252;5.788;2022-12-18T06:59:44;-5.20;99.90
54124;DHT22;55741;53.252;5.788;2022-12-18T07:02:11;-5.20;99.90
54124;DHT22;55741;53.252;5.788;2022-12-18T07:04:40;-5.20;99.90
54124;DHT22;55741;53.252;5.788;2022-12-18T07:07:07;-5.20;99.90
54124;DHT22;55741;53.252;5.788;2022-12-18T07:09:34;-5.20;99.90
54124;DHT22;55741;53.252;5.788;2022-12-18T07:11:59;-5.20;99.90
54124;DHT22;55741;53.252;5.788;2022-12-18T07:14:25;-5.20;99.90
54124;DHT22;55741;53.252;5.788;2022-12-18T07:16:51;-5.20;99.90
54124;DHT22;55741;53.252;5.788;2022-12-18T07:19:17;-5.20;99.90
54124;DHT22;55741;53.252;5.788;2022-12-18T07:21:43;-5.20;99.90
54124;DHT22;55741;53.252;5.788;2022-12-18T07:24:11;-5.20;99.90
54124;DHT22;55741;53.252;5.788;2022-12-18T07:26:37;-5.20;99.90
54124;DHT22;55741;53.252;5.788;2022-12-18T07:29:03;-5.20;99.90
54124;DHT22;55741;53.252;5.788;2022-12-18T07:31:29;-5.20;99.90
54124;DHT22;55741;53.252;5.788;2022-12-18T07:33:55;-5.10;99.90
54124;DHT22;55741;53.252;5.788;2022-12-18T07:36:20;-5.10;99.90
54124;DHT22;55741;53.252;5.788;2022-12-18T07:38:47;-5.10;99.90
54124;DHT22;55741;53.252;5.788;2022-12-18T07:41:14;-5.00;99.90
54124;DHT22;55741;53.252;5.788;2022-12-18T07:43:42;-5.00;99.90
54124;DHT22;55741;53.252;5.788;2022-12-18T07:46:09;-5.00;99.90
54124;DHT22;55741;53.252;5.788;2022-12-18T07:48:39;-5.00;99.90
54124;DHT22;55741;53.252;5.788;2022-12-18T07:51:06;-4.90;99.90
54124;DHT22;55741;53.252;5.788;2022-12-18T07:53:33;-4.90;99.90
54124;DHT22;55741;53.252;5.788;2022-12-18T07:56:07;-4.90;99.90
54124;DHT22;55741;53.252;5.788;2022-12-18T07:58:34;-4.90;99.90
54124;DHT22;55741;53.252;5.788;2022-12-18T08:01:08;-4.90;99.90
54124;DHT22;55741;53.252;5.788;2022-12-18T08:03:34;-4.80;99.90
54124;DHT22;55741;53.252;5.788;2022-12-18T08:06:06;-4.90;99.90
54124;DHT22;55741;53.252;5.788;2022-12-18T08:08:34;-4.80;99.90
54124;DHT22;55741;53.252;5.788;2022-12-18T08:11:01;-4.80;99.90
54124;DHT22;55741;53.252;5.788;2022-12-18T08:13:27;-4.80;99.90
54124;DHT22;55741;53.252;5.788;2022-12-18T08:16:02;-4.80;99.90
54124;DHT22;55741;53.252;5.788;2022-12-18T08:18:28;-4.80;99.90
54124;DHT22;55741;53.252;5.788;2022-12-18T08:20:55;-4.80;99.90
54124;DHT22;55741;53.252;5.788;2022-12-18T08:23:21;-4.70;99.90
54124;DHT22;55741;53.252;5.788;2022-12-18T08:25:47;-4.70;99.90
54124;DHT22;55741;53.252;5.788;2022-12-18T08:28:16;-4.70;99.90
54124;DHT22;55741;53.252;5.788;2022-12-18T08:30:42;-4.70;99.90
54124;DHT22;55741;53.252;5.788;2022-12-18T08:33:09;-4.70;99.90
54124;DHT22;55741;53.252;5.788;2022-12-18T08:35:36;-4.60;99.90
54124;DHT22;55741;53.252;5.788;2022-12-18T08:38:03;-4.60;99.90
54124;DHT22;55741;53.252;5.788;2022-12-18T08:40:29;-4.60;99.90
54124;DHT22;55741;53.252;5.788;2022-12-18T08:42:55;-4.50;99.90
54124;DHT22;55741;53.252;5.788;2022-12-18T08:45:39;-4.50;99.90
54124;DHT22;55741;53.252;5.788;2022-12-18T08:48:06;-4.40;99.90
54124;DHT22;55741;53.252;5.788;2022-12-18T08:50:31;-4.30;99.90
54124;DHT22;55741;53.252;5.788;2022-12-18T08:52:57;-4.20;99.90
54124;DHT22;55741;53.252;5.788;2022-12-18T08:55:23;-4.20;99.90
54124;DHT22;55741;53.252;5.788;2022-12-18T08:57:50;-4.20;99.90
54124;DHT22;55741;53.252;5.788;2022-12-18T09:00:16;-4.10;99.90
54124;DHT22;55741;53.252;5.788;2022-12-18T09:02:42;-4.10;99.90
54124;DHT22;55741;53.252;5.788;2022-12-18T09:05:08;-4.00;99.90
54124;DHT22;55741;53.252;5.788;2022-12-18T09:07:34;-3.90;99.90
54124;DHT22;55741;53.252;5.788;2022-12-18T09:10:02;-3.90;99.90
54124;DHT22;55741;53.252;5.788;2022-12-18T09:12:28;-3.80;99.90
54124;DHT22;55741;53.252;5.788;2022-12-18T09:14:54;-3.80;99.90
54124;DHT22;55741;53.252;5.788;2022-12-18T09:17:19;-3.70;99.90
54124;DHT22;55741;53.252;5.788;2022-12-18T09:19:45;-3.70;99.90
54124;DHT22;55741;53.252;5.788;2022-12-18T09:22:12;-3.60;99.90
54124;DHT22;55741;53.252;5.788;2022-12-18T09:24:37;-3.50;99.90
54124;DHT22;55741;53.252;5.788;2022-12-18T09:27:03;-3.40;99.90
54124;DHT22;55741;53.252;5.788;2022-12-18T09:29:29;-3.40;99.90
54124;DHT22;55741;53.252;5.788;2022-12-18T09:31:55;-3.40;99.90
54124;DHT22;55741;53.252;5.788;2022-12-18T09:34:21;-3.20;99.90
54124;DHT22;55741;53.252;5.788;2022-12-18T09:36:48;-3.20;99.90
54124;DHT22;55741;53.252;5.788;2022-12-18T09:39:15;-3.10;99.90
54124;DHT22;55741;53.252;5.788;2022-12-18T09:41:51;-3.10;99.90
54124;DHT22;55741;53.252;5.788;2022-12-18T09:47:30;-3.00;99.90
54124;DHT22;55741;53.252;5.788;2022-12-18T09:50:13;-2.90;99.90
54124;DHT22;55741;53.252;5.788;2022-12-18T09:52:48;-2.80;99.90
54124;DHT22;55741;53.252;5.788;2022-12-18T09:55:31;-2.80;99.90
54124;DHT22;55741;53.252;5.788;2022-12-18T09:58:23;-2.80;99.90
54124;DHT22;55741;53.252;5.788;2022-12-18T10:00:52;-2.70;99.90
54124;DHT22;55741;53.252;5.788;2022-12-18T10:03:19;-2.70;99.90
54124;DHT22;55741;53.252;5.788;2022-12-18T10:06:19;-2.70;99.90
54124;DHT22;55741;53.252;5.788;2022-12-18T10:09:18;-2.60;99.90
54124;DHT22;55741;53.252;5.788;2022-12-18T10:12:08;-2.60;99.90
54124;DHT22;55741;53.252;5.788;2022-12-18T10:20:41;-2.50;99.90
54124;DHT22;55741;53.252;5.788;2022-12-18T10:23:21;-2.50;99.90
54124;DHT22;55741;53.252;5.788;2022-12-18T10:26:09;-2.40;99.90
54124;DHT22;55741;53.252;5.788;2022-12-18T10:28:37;-2.40;99.90
54124;DHT22;55741;53.252;5.788;2022-12-18T10:31:05;-2.30;99.90
54124;DHT22;55741;53.252;5.788;2022-12-18T10:33:33;-2.30;99.90
54124;DHT22;55741;53.252;5.788;2022-12-18T10:36:00;-2.30;99.90
54124;DHT22;55741;53.252;5.788;2022-12-18T10:38:31;-2.20;99.90
54124;DHT22;55741;53.252;5.788;2022-12-18T10:41:06;-2.20;99.90
54124;DHT22;55741;53.252;5.788;2022-12-18T10:43:39;-2.10;99.90
54124;DHT22;55741;53.252;5.788;2022-12-18T10:51:07;-2.10;99.90
54124;DHT22;55741;53.252;5.788;2022-12-18T10:53:36;-1.10;99.90
54124;DHT22;55741;53.252;5.788;2022-12-18T10:56:04;-2.00;99.90
54124;DHT22;55741;53.252;5.788;2022-12-18T10:58:34;-1.90;99.90
54124;DHT22;55741;53.252;5.788;2022-12-18T11:01:05;-1.90;99.90
54124;DHT22;55741;53.252;5.788;2022-12-18T11:03:59;-1.90;99.90
54124;DHT22;55741;53.252;5.788;2022-12-18T11:06:25;-1.80;99.90
54124;DHT22;55741;53.252;5.788;2022-12-18T11:09:06;-1.80;99.90
54124;DHT22;55741;53.252;5.788;2022-12-18T11:11:55;-1.80;99.90
54124;DHT22;55741;53.252;5.788;2022-12-18T11:17:35;-1.70;99.90
54124;DHT22;55741;53.252;5.788;2022-12-18T11:20:07;-1.60;99.90
54124;DHT22;55741;53.252;5.788;2022-12-18T11:22:58;-1.60;99.90
54124;DHT22;55741;53.252;5.788;2022-12-18T11:25:25;-1.50;99.90
54124;DHT22;55741;53.252;5.788;2022-12-18T11:27:54;-1.50;99.90
54124;DHT22;55741;53.252;5.788;2022-12-18T11:33:15;-1.40;99.90
54124;DHT22;55741;53.252;5.788;2022-12-18T11:35:58;-1.40;99.90
54124;DHT22;55741;53.252;5.788;2022-12-18T11:38:37;-1.30;99.90
54124;DHT22;55741;53.252;5.788;2022-12-18T11:44:32;-1.30;99.90
54124;DHT22;55741;53.252;5.788;2022-12-18T11:49:49;-1.20;99.90
54124;DHT22;55741;53.252;5.788;2022-12-18T11:52:23;-1.20;99.90
54124;DHT22;55741;53.252;5.788;2022-12-18T11:54:56;-1.20;99.90
54124;DHT22;55741;53.252;5.788;2022-12-18T12:00:21;-1.20;99.90
54124;DHT22;55741;53.252;5.788;2022-12-18T12:08:54;-1.10;99.90
54124;DHT22;55741;53.252;5.788;2022-12-18T12:11:41;-1.10;99.90
54124;DHT22;55741;53.252;5.788;2022-12-18T12:16:59;-1.10;99.90
54124;DHT22;55741;53.252;5.788;2022-12-18T12:19:41;-1.00;99.90
54124;DHT22;55741;53.252;5.788;2022-12-18T12:25:37;-1.00;99.90
54124;DHT22;55741;53.252;5.788;2022-12-18T12:28:33;-0.90;99.90
54124;DHT22;55741;53.252;5.788;2022-12-18T12:37:03;-0.80;99.90
54124;DHT22;55741;53.252;5.788;2022-12-18T12:39:31;-0.80;99.90
54124;DHT22;55741;53.252;5.788;2022-12-18T12:41:58;-0.80;99.90
54124;DHT22;55741;53.252;5.788;2022-12-18T12:44:51;-0.80;99.90
54124;DHT22;55741;53.252;5.788;2022-12-18T12:47:23;-0.80;99.90
54124;DHT22;55741;53.252;5.788;2022-12-18T12:49:51;-0.90;99.90
54124;DHT22;55741;53.252;5.788;2022-12-18T12:52:20;-0.80;99.90
54124;DHT22;55741;53.252;5.788;2022-12-18T12:54:51;-0.90;99.90
54124;DHT22;55741;53.252;5.788;2022-12-18T12:57:23;-0.90;99.90
54124;DHT22;55741;53.252;5.788;2022-12-18T12:59:58;-0.90;99.90
54124;DHT22;55741;53.252;5.788;2022-12-18T13:07:48;-0.90;99.90
54124;DHT22;55741;53.252;5.788;2022-12-18T13:12:54;-0.90;99.90
54124;DHT22;55741;53.252;5.788;2022-12-18T13:15:47;-0.80;99.90
54124;DHT22;55741;53.252;5.788;2022-12-18T13:18:20;-0.90;99.90
54124;DHT22;55741;53.252;5.788;2022-12-18T13:23:31;-0.80;99.90
54124;DHT22;55741;53.252;5.788;2022-12-18T13:28:56;-0.80;99.90
54124;DHT22;55741;53.252;5.788;2022-12-18T13:34:19;-0.80;99.90
54124;DHT22;55741;53.252;5.788;2022-12-18T13:36:47;-0.80;99.90
54124;DHT22;55741;53.252;5.788;2022-12-18T13:41:41;-0.80;99.90
54124;DHT22;55741;53.252;5.788;2022-12-18T13:46:54;-0.80;99.90
54124;DHT22;55741;53.252;5.788;2022-12-18T13:49:36;-0.80;99.90
54124;DHT22;55741;53.252;5.788;2022-12-18T13:52:19;-0.80;99.90
54124;DHT22;55741;53.252;5.788;2022-12-18T13:54:53;-0.70;99.90
54124;DHT22;55741;53.252;5.788;2022-12-18T13:57:28;-0.80;99.90
54124;DHT22;55741;53.252;5.788;2022-12-18T13:59:55;-0.90;99.90
54124;DHT22;55741;53.252;5.788;2022-12-18T14:02:24;-0.90;99.90
54124;DHT22;55741;53.252;5.788;2022-12-18T14:04:50;-0.90;99.90
54124;DHT22;55741;53.252;5.788;2022-12-18T14:07:28;-0.90;99.90
54124;DHT22;55741;53.252;5.788;2022-12-18T14:09:56;-0.90;99.90
54124;DHT22;55741;53.252;5.788;2022-12-18T14:12:26;-0.90;99.90
54124;DHT22;55741;53.252;5.788;2022-12-18T14:18:24;-0.90;99.90
54124;DHT22;55741;53.252;5.788;2022-12-18T14:20:59;-0.90;99.90
54124;DHT22;55741;53.252;5.788;2022-12-18T14:23:38;-1.00;99.90
54124;DHT22;55741;53.252;5.788;2022-12-18T14:26:22;-1.00;99.90
54124;DHT22;55741;53.252;5.788;2022-12-18T14:28:49;-1.00;99.90
54124;DHT22;55741;53.252;5.788;2022-12-18T14:31:26;-1.10;99.90
54124;DHT22;55741;53.252;5.788;2022-12-18T14:33:53;-1.10;99.90
54124;DHT22;55741;53.252;5.788;2022-12-18T14:36:24;-1.10;99.90
54124;DHT22;55741;53.252;5.788;2022-12-18T14:38:52;-1.10;99.90
54124;DHT22;55741;53.252;5.788;2022-12-18T14:41:20;-1.20;99.90
54124;DHT22;55741;53.252;5.788;2022-12-18T14:43:48;-1.10;99.90
54124;DHT22;55741;53.252;5.788;2022-12-18T14:46:44;-1.20;99.90
54124;DHT22;55741;53.252;5.788;2022-12-18T14:49:31;-1.20;99.90
54124;DHT22;55741;53.252;5.788;2022-12-18T14:52:04;-1.20;99.90
54124;DHT22;55741;53.252;5.788;2022-12-18T14:54:32;-1.20;99.90
54124;DHT22;55741;53.252;5.788;2022-12-18T14:57:05;-1.20;99.90
54124;DHT22;55741;53.252;5.788;2022-12-18T14:59:31;-1.30;99.90
54124;DHT22;55741;53.252;5.788;2022-12-18T15:04:39;-1.30;99.90
54124;DHT22;55741;53.252;5.788;2022-12-18T15:10:31;-1.30;99.90
54124;DHT22;55741;53.252;5.788;2022-12-18T15:26:10;-1.30;99.90
54124;DHT22;55741;53.252;5.788;2022-12-18T15:28:54;-1.40;99.90
54124;DHT22;55741;53.252;5.788;2022-12-18T15:36:19;-1.40;99.90
54124;DHT22;55741;53.252;5.788;2022-12-18T15:38:49;-1.40;99.90
54124;DHT22;55741;53.252;5.788;2022-12-18T15:41:17;-1.40;99.90
54124;DHT22;55741;53.252;5.788;2022-12-18T15:43:44;-1.30;99.90
54124;DHT22;55741;53.252;5.788;2022-12-18T15:46:16;-1.40;99.90
54124;DHT22;55741;53.252;5.788;2022-12-18T15:48:44;-1.40;99.90
54124;DHT22;55741;53.252;5.788;2022-12-18T15:51:18;-1.30;99.90
54124;DHT22;55741;53.252;5.788;2022-12-18T15:53:46;-1.30;99.90
54124;DHT22;55741;53.252;5.788;2022-12-18T15:56:14;-1.30;99.90
54124;DHT22;55741;53.252;5.788;2022-12-18T15:59:00;-1.30;99.90
54124;DHT22;55741;53.252;5.788;2022-12-18T16:01:29;-1.30;99.90
54124;DHT22;55741;53.252;5.788;2022-12-18T16:03:55;-1.30;99.90
54124;DHT22;55741;53.252;5.788;2022-12-18T16:06:24;-1.30;99.90
54124;DHT22;55741;53.252;5.788;2022-12-18T16:08:50;-1.30;99.90
54124;DHT22;55741;53.252;5.788;2022-12-18T16:11:26;-1.30;99.90
54124;DHT22;55741;53.252;5.788;2022-12-18T16:16:49;-1.30;99.90
54124;DHT22;55741;53.252;5.788;2022-12-18T16:19:15;-1.30;99.90
54124;DHT22;55741;53.252;5.788;2022-12-18T16:21:42;-1.30;99.90
54124;DHT22;55741;53.252;5.788;2022-12-18T16:24:21;-1.20;99.90
54124;DHT22;55741;53.252;5.788;2022-12-18T16:26:48;-1.20;99.90
54124;DHT22;55741;53.252;5.788;2022-12-18T16:29:14;-1.20;99.90
54124;DHT22;55741;53.252;5.788;2022-12-18T16:31:40;-1.10;99.90
54124;DHT22;55741;53.252;5.788;2022-12-18T16:34:27;-1.10;99.90
54124;DHT22;55741;53.252;5.788;2022-12-18T16:36:54;-1.00;99.90
54124;DHT22;55741;53.252;5.788;2022-12-18T16:39:21;-1.00;99.90
54124;DHT22;55741;53.252;5.788;2022-12-18T16:41:47;-1.00;99.90
54124;DHT22;55741;53.252;5.788;2022-12-18T16:44:13;-0.90;99.90
54124;DHT22;55741;53.252;5.788;2022-12-18T16:46:40;-0.90;99.90
54124;DHT22;55741;53.252;5.788;2022-12-18T16:49:09;-0.90;99.90
54124;DHT22;55741;53.252;5.788;2022-12-18T16:51:35;-0.90;99.90
54124;DHT22;55741;53.252;5.788;2022-12-18T16:54:01;-0.80;99.90
54124;DHT22;55741;53.252;5.788;2022-12-18T16:56:27;-0.80;99.90
54124;DHT22;55741;53.252;5.788;2022-12-18T16:58:54;-0.80;99.90
54124;DHT22;55741;53.252;5.788;2022-12-18T17:01:21;-0.70;99.90
54124;DHT22;55741;53.252;5.788;2022-12-18T17:04:04;-0.80;99.90
54124;DHT22;55741;53.252;5.788;2022-12-18T17:06:33;-0.80;99.90
54124;DHT22;55741;53.252;5.788;2022-12-18T17:09:12;-0.80;99.90
54124;DHT22;55741;53.252;5.788;2022-12-18T17:11:39;-0.70;99.90
54124;DHT22;55741;53.252;5.788;2022-12-18T17:14:12;-0.70;99.90
54124;DHT22;55741;53.252;5.788;2022-12-18T17:16:39;-0.70;99.90
54124;DHT22;55741;53.252;5.788;2022-12-18T17:19:04;-0.70;99.90
54124;DHT22;55741;53.252;5.788;2022-12-18T17:21:30;-0.70;99.90
54124;DHT22;55741;53.252;5.788;2022-12-18T17:23:59;-0.70;99.90
54124;DHT22;55741;53.252;5.788;2022-12-18T17:26:27;-0.60;99.90
54124;DHT22;55741;53.252;5.788;2022-12-18T17:28:55;-0.60;99.90
54124;DHT22;55741;53.252;5.788;2022-12-18T17:31:23;-0.70;99.90
54124;DHT22;55741;53.252;5.788;2022-12-18T17:33:50;-0.60;99.90
54124;DHT22;55741;53.252;5.788;2022-12-18T17:36:17;-0.60;99.90
54124;DHT22;55741;53.252;5.788;2022-12-18T17:38:48;-0.60;99.90
54124;DHT22;55741;53.252;5.788;2022-12-18T17:41:15;-0.60;99.90
54124;DHT22;55741;53.252;5.788;2022-12-18T17:43:40;-0.50;99.90
54124;DHT22;55741;53.252;5.788;2022-12-18T17:46:12;-0.50;99.90
54124;DHT22;55741;53.252;5.788;2022-12-18T17:48:38;-0.50;99.90